sensor_id;sensor_type;location;lat;lon;timestamp;pressure;altitude;pressure_sealevel;temperature;humidity
10712;BME280;5407;51.234;6.804;2023-12-20T00:01:21;100995.44;;;9.54;100.00
10712;BME280;5407;51.234;6.804;2023-12-20T00:03:48;101002.31;;;9.43;100.00
10712;BME280;5407;51.234;6.804;2023-12-20T00:06:16;101000.22;;;9.49;100.00
10712;BME280;5407;51.234;6.804;2023-12-20T00:08:43;100999.78;;;9.38;100.00
10712;BME280;5407;51.234;6.804;2023-12-20T00:11:10;100993.75;;;9.41;100.00
10712;BME280;5407;51.234;6.804;2023-12-20T00:13:37;100995.59;;;9.49;100.00
10712;BME280;5407;51.234;6.804;2023-12-20T00:16:05;100996.25;;;9.46;100.00
10712;BME280;5407;51.234;6.804;2023-12-20T00:18:32;100992.91;;;9.49;100.00
10712;BME280;5407;51.234;6.804;2023-12-20T00:20:59;100992.09;;;9.57;100.00
10712;BME280;5407;51.234;6.804;2023-12-20T00:23:28;100997.38;;;9.45;100.00
10712;BME280;5407;51.234;6.804;2023-12-20T00:25:56;100998.50;;;9.44;100.00
10712;BME280;5407;51.234;6.804;2023-12-20T00:28:24;101016.22;;;9.45;100.00
10712;BME280;5407;51.234;6.804;2023-12-20T00:30:54;101021.72;;;9.28;100.00
10712;BME280;5407;51.234;6.804;2023-12-20T00:33:21;101014.84;;;9.39;100.00
10712;BME280;5407;51.234;6.804;2023-12-20T00:35:54;101023.09;;;9.34;100.00
10712;BME280;5407;51.234;6.804;2023-12-20T00:38:29;101027.25;;;9.32;100.00
10712;BME280;5407;51.234;6.804;2023-12-20T00:40:59;101022.00;;;9.35;100.00
10712;BME280;5407;51.234;6.804;2023-12-20T00:43:29;101012.94;;;9.40;100.00
10712;BME280;5407;51.234;6.804;2023-12-20T00:46:03;101015.47;;;9.45;100.00
10712;BME280;5407;51.234;6.804;2023-12-20T00:48:38;101011.22;;;9.35;100.00
10712;BME280;5407;51.234;6.804;2023-12-20T00:51:16;101022.44;;;9.37;100.00
10712;BME280;5407;51.234;6.804;2023-12-20T00:53:48;101036.84;;;9.41;100.00
10712;BME280;5407;51.234;6.804;2023-12-20T00:56:16;101029.09;;;9.40;100.00
10712;BME280;5407;51.234;6.804;2023-12-20T00:58:45;101023.38;;;9.41;100.00
10712;BME280;5407;51.234;6.804;2023-12-20T01:01:13;101025.78;;;9.34;100.00
10712;BME280;5407;51.234;6.804;2023-12-20T01:03:40;101032.28;;;9.33;100.00
10712;BME280;5407;51.234;6.804;2023-12-20T01:06:08;101032.47;;;9.28;100.00
10712;BME280;5407;51.234;6.804;2023-12-20T01:08:35;101036.06;;;9.41;100.00
10712;BME280;5407;51.234;6.804;2023-12-20T01:11:05;101036.47;;;9.22;100.00
10712;BME280;5407;51.234;6.804;2023-12-20T01:13:33;101037.94;;;9.11;100.00
10712;BME280;5407;51.234;6.804;2023-12-20T01:15:59;101029.81;;;9.20;100.00
10712;BME280;5407;51.234;6.804;2023-12-20T01:18:29;101034.88;;;9.21;100.00
10712;BME280;5407;51.234;6.804;2023-12-20T01:21:02;101026.53;;;9.14;100.00
10712;BME280;5407;51.234;6.804;2023-12-20T01:23:34;101036.69;;;9.00;100.00
10712;BME280;5407;51.234;6.804;2023-12-20T01:26:07;101041.44;;;9.03;100.00
10712;BME280;5407;51.234;6.804;2023-12-20T01:28:42;101043.34;;;8.94;100.00
10712;BME280;5407;51.234;6.804;2023-12-20T01:31:17;101038.44;;;8.96;100.00
10712;BME280;5407;51.234;6.804;2023-12-20T01:33:49;101044.28;;;8.98;100.00
10712;BME280;5407;51.234;6.804;2023-12-20T01:36:39;101045.59;;;8.92;100.00
10712;BME280;5407;51.234;6.804;2023-12-20T01:39:21;101044.94;;;8.95;100.00
10712;BME280;5407;51.234;6.804;2023-12-20T01:41:54;101041.78;;;8.93;100.00
10712;BME280;5407;51.234;6.804;2023-12-20T01:44:21;101049.22;;;8.96;100.00
10712;BME280;5407;51.234;6.804;2023-12-20T01:46:48;101055.25;;;8.93;100.00
10712;BME280;5407;51.234;6.804;2023-12-20T01:49:16;101065.88;;;8.81;100.00
10712;BME280;5407;51.234;6.804;2023-12-20T01:51:46;101059.38;;;8.91;100.00
10712;BME280;5407;51.234;6.804;2023-12-20T01:54:14;101064.75;;;8.82;100.00
10712;BME280;5407;51.234;6.804;2023-12-20T01:56:42;101066.22;;;8.71;100.00
10712;BME280;5407;51.234;6.804;2023-12-20T01:59:11;101056.41;;;8.75;100.00
10712;BME280;5407;51.234;6.804;2023-12-20T02:01:38;101060.38;;;8.69;100.00
10712;BME280;5407;51.234;6.804;2023-12-20T02:04:14;101055.16;;;8.65;100.00
10712;BME280;5407;51.234;6.804;2023-12-20T02:06:50;101067.00;;;8.72;100.00
10712;BME280;5407;51.234;6.804;2023-12-20T02:09:25;101053.25;;;8.57;100.00
10712;BME280;5407;51.234;6.804;2023-12-20T02:11:59;101065.28;;;8.68;100.00
10712;BME280;5407;51.234;6.804;2023-12-20T02:15:12;101073.50;;;8.63;100.00
10712;BME280;5407;51.234;6.804;2023-12-20T02:17:39;101065.91;;;8.65;100.00
10712;BME280;5407;51.234;6.804;2023-12-20T02:20:07;101072.22;;;8.68;100.00
10712;BME280;5407;51.234;6.804;2023-12-20T02:22:35;101060.38;;;8.61;100.00
10712;BME280;5407;51.234;6.804;2023-12-20T02:25:02;101061.00;;;8.58;100.00
10712;BME280;5407;51.234;6.804;2023-12-20T02:27:29;101062.41;;;8.56;100.00
10712;BME280;5407;51.234;6.804;2023-12-20T02:29:57;101071.63;;;8.38;100.00
10712;BME280;5407;51.234;6.804;2023-12-20T02:32:25;101067.50;;;8.49;100.00
10712;BME280;5407;51.234;6.804;2023-12-20T02:34:53;101074.44;;;8.67;100.00
10712;BME280;5407;51.234;6.804;2023-12-20T02:37:20;101072.56;;;8.59;100.00
10712;BME280;5407;51.234;6.804;2023-12-20T02:39:48;101077.63;;;8.68;100.00
10712;BME280;5407;51.234;6.804;2023-12-20T02:42:15;101081.09;;;8.61;100.00
10712;BME280;5407;51.234;6.804;2023-12-20T02:44:42;101074.16;;;8.51;100.00
10712;BME280;5407;51.234;6.804;2023-12-20T02:47:09;101080.59;;;8.67;100.00
10712;BME280;5407;51.234;6.804;2023-12-20T02:49:36;101073.50;;;8.63;100.00
10712;BME280;5407;51.234;6.804;2023-12-20T02:52:03;101074.63;;;8.62;100.00
10712;BME280;5407;51.234;6.804;2023-12-20T02:54:31;101074.16;;;8.60;100.00
10712;BME280;5407;51.234;6.804;2023-12-20T02:56:59;101069.72;;;8.64;100.00
10712;BME280;5407;51.234;6.804;2023-12-20T02:59:26;101071.28;;;8.65;100.00
10712;BME280;5407;51.234;6.804;2023-12-20T03:01:53;101062.41;;;8.56;100.00
10712;BME280;5407;51.234;6.804;2023-12-20T03:04:20;101071.00;;;8.24;100.00
10712;BME280;5407;51.234;6.804;2023-12-20T03:06:47;101075.88;;;8.30;100.00
10712;BME280;5407;51.234;6.804;2023-12-20T03:09:13;101075.72;;;8.44;100.00
10712;BME280;5407;51.234;6.804;2023-12-20T03:11:40;101070.34;;;8.44;100.00
10712;BME280;5407;51.234;6.804;2023-12-20T03:14:09;101076.66;;;8.48;100.00
10712;BME280;5407;51.234;6.804;2023-12-20T03:16:35;101070.97;;;8.58;100.00
10712;BME280;5407;51.234;6.804;2023-12-20T03:19:02;101083.16;;;8.55;100.00
10712;BME280;5407;51.234;6.804;2023-12-20T03:21:29;101066.22;;;8.55;100.00
10712;BME280;5407;51.234;6.804;2023-12-20T03:23:56;101064.16;;;8.52;100.00
10712;BME280;5407;51.234;6.804;2023-12-20T03:26:23;101077.63;;;8.52;100.00
10712;BME280;5407;51.234;6.804;2023-12-20T03:28:50;101072.56;;;8.42;100.00
10712;BME280;5407;51.234;6.804;2023-12-20T03:31:18;101078.88;;;8.46;100.00
10712;BME280;5407;51.234;6.804;2023-12-20T03:33:46;101075.56;;;8.49;100.00
10712;BME280;5407;51.234;6.804;2023-12-20T03:36:13;101073.84;;;8.44;100.00
10712;BME280;5407;51.234;6.804;2023-12-20T03:38:40;101063.41;;;8.26;100.00
10712;BME280;5407;51.234;6.804;2023-12-20T03:41:07;101066.09;;;8.26;100.00
10712;BME280;5407;51.234;6.804;2023-12-20T03:43:35;101064.34;;;8.30;100.00
10712;BME280;5407;51.234;6.804;2023-12-20T03:46:07;101055.47;;;8.29;100.00
10712;BME280;5407;51.234;6.804;2023-12-20T03:48:36;101055.50;;;8.21;100.00
10712;BME280;5407;51.234;6.804;2023-12-20T03:51:04;101050.25;;;8.16;100.00
10712;BME280;5407;51.234;6.804;2023-12-20T03:53:31;101054.81;;;8.15;100.00
10712;BME280;5407;51.234;6.804;2023-12-20T03:55:59;101048.81;;;8.01;100.00
10712;BME280;5407;51.234;6.804;2023-12-20T03:58:32;101049.13;;;8.08;100.00
10712;BME280;5407;51.234;6.804;2023-12-20T04:00:59;101056.44;;;8.25;100.00
10712;BME280;5407;51.234;6.804;2023-12-20T04:03:27;101058.97;;;8.30;100.00
10712;BME280;5407;51.234;6.804;2023-12-20T04:05:57;101066.03;;;8.09;100.00
10712;BME280;5407;51.234;6.804;2023-12-20T04:08:24;101060.25;;;8.24;100.00
10712;BME280;5407;51.234;6.804;2023-12-20T04:10:51;101055.50;;;8.21;100.00
10712;BME280;5407;51.234;6.804;2023-12-20T04:13:18;101053.84;;;8.03;100.00
10712;BME280;5407;51.234;6.804;2023-12-20T04:15:45;101055.75;;;8.11;100.00
10712;BME280;5407;51.234;6.804;2023-12-20T04:18:13;101042.19;;;8.16;100.00
10712;BME280;5407;51.234;6.804;2023-12-20T04:20:40;101047.41;;;8.12;100.00
10712;BME280;5407;51.234;6.804;2023-12-20T04:23:09;101047.56;;;8.16;100.00
10712;BME280;5407;51.234;6.804;2023-12-20T04:25:36;101063.22;;;8.14;100.00
10712;BME280;5407;51.234;6.804;2023-12-20T04:28:03;101060.47;;;7.80;100.00
10712;BME280;5407;51.234;6.804;2023-12-20T04:30:30;101062.41;;;8.05;100.00
10712;BME280;5407;51.234;6.804;2023-12-20T04:32:57;101065.56;;;8.07;100.00
10712;BME280;5407;51.234;6.804;2023-12-20T04:35:24;101065.88;;;7.97;100.00
10712;BME280;5407;51.234;6.804;2023-12-20T04:37:55;101068.09;;;8.03;100.00
10712;BME280;5407;51.234;6.804;2023-12-20T04:40:23;101070.59;;;8.00;100.00
10712;BME280;5407;51.234;6.804;2023-12-20T04:42:50;101070.31;;;8.01;100.00
10712;BME280;5407;51.234;6.804;2023-12-20T04:45:18;101069.66;;;7.96;100.00
10712;BME280;5407;51.234;6.804;2023-12-20T04:47:45;101067.59;;;7.93;100.00
10712;BME280;5407;51.234;6.804;2023-12-20T04:50:15;101063.63;;;7.82;100.00
10712;BME280;5407;51.234;6.804;2023-12-20T04:52:43;101053.81;;;7.77;100.00
10712;BME280;5407;51.234;6.804;2023-12-20T04:55:16;101072.03;;;7.97;100.00
10712;BME280;5407;51.234;6.804;2023-12-20T04:57:46;101074.56;;;7.94;100.00
10712;BME280;5407;51.234;6.804;2023-12-20T05:00:17;101067.91;;;7.83;100.00
10712;BME280;5407;51.234;6.804;2023-12-20T05:08:09;101064.91;;;7.93;100.00
10712;BME280;5407;51.234;6.804;2023-12-20T05:10:36;101071.25;;;7.97;100.00
10712;BME280;5407;51.234;6.804;2023-12-20T05:13:09;101068.53;;;7.88;100.00
10712;BME280;5407;51.234;6.804;2023-12-20T05:15:39;101077.13;;;8.07;100.00
10712;BME280;5407;51.234;6.804;2023-12-20T05:18:12;101074.72;;;8.06;100.00
10712;BME280;5407;51.234;6.804;2023-12-20T05:20:40;101062.25;;;8.10;100.00
10712;BME280;5407;51.234;6.804;2023-12-20T05:23:09;101069.50;;;8.01;100.00
10712;BME280;5407;51.234;6.804;2023-12-20T05:25:37;101071.88;;;8.11;100.00
10712;BME280;5407;51.234;6.804;2023-12-20T05:28:05;101073.94;;;8.05;100.00
10712;BME280;5407;51.234;6.804;2023-12-20T05:30:32;101068.72;;;7.92;100.00
10712;BME280;5407;51.234;6.804;2023-12-20T05:32:59;101075.63;;;7.84;100.00
10712;BME280;5407;51.234;6.804;2023-12-20T05:35:26;101059.09;;;7.99;100.00
10712;BME280;5407;51.234;6.804;2023-12-20T05:37:53;101065.22;;;7.83;100.00
10712;BME280;5407;51.234;6.804;2023-12-20T05:40:20;101060.16;;;7.90;100.00
10712;BME280;5407;51.234;6.804;2023-12-20T05:42:47;101061.13;;;7.94;100.00
10712;BME280;5407;51.234;6.804;2023-12-20T05:45:18;101055.44;;;7.87;100.00
10712;BME280;5407;51.234;6.804;2023-12-20T05:47:45;101064.75;;;7.98;100.00
10712;BME280;5407;51.234;6.804;2023-12-20T05:50:11;101057.31;;;7.78;100.00
10712;BME280;5407;51.234;6.804;2023-12-20T05:52:38;101055.09;;;7.80;100.00
10712;BME280;5407;51.234;6.804;2023-12-20T05:55:06;101050.06;;;7.87;100.00
10712;BME280;5407;51.234;6.804;2023-12-20T05:57:33;101050.84;;;7.96;100.00
10712;BME280;5407;51.234;6.804;2023-12-20T06:00:00;101052.28;;;8.02;100.00
10712;BME280;5407;51.234;6.804;2023-12-20T06:02:39;101054.81;;;8.07;100.00
10712;BME280;5407;51.234;6.804;2023-12-20T06:05:06;101065.88;;;8.05;100.00
10712;BME280;5407;51.234;6.804;2023-12-20T06:07:33;101065.63;;;8.24;100.00
10712;BME280;5407;51.234;6.804;2023-12-20T06:10:00;101061.81;;;8.25;100.00
10712;BME280;5407;51.234;6.804;2023-12-20T06:12:27;101065.25;;;7.91;100.00
10712;BME280;5407;51.234;6.804;2023-12-20T06:14:57;101071.56;;;8.04;100.00
10712;BME280;5407;51.234;6.804;2023-12-20T06:17:24;101080.59;;;8.16;100.00
10712;BME280;5407;51.234;6.804;2023-12-20T06:19:53;101087.06;;;8.07;100.00
10712;BME280;5407;51.234;6.804;2023-12-20T06:22:19;101086.59;;;8.13;100.00
10712;BME280;5407;51.234;6.804;2023-12-20T06:24:46;101074.09;;;8.09;100.00
10712;BME280;5407;51.234;6.804;2023-12-20T06:27:13;101071.56;;;8.04;100.00
10712;BME280;5407;51.234;6.804;2023-12-20T06:29:40;101073.22;;;8.22;100.00
10712;BME280;5407;51.234;6.804;2023-12-20T06:32:09;101064.78;;;8.06;100.00
10712;BME280;5407;51.234;6.804;2023-12-20T06:34:36;101072.41;;;8.21;100.00
10712;BME280;5407;51.234;6.804;2023-12-20T06:37:05;101067.19;;;8.25;100.00
10712;BME280;5407;51.234;6.804;2023-12-20T06:39:32;101065.16;;;8.22;100.00
10712;BME280;5407;51.234;6.804;2023-12-20T06:42:00;101066.25;;;8.21;100.00
10712;BME280;5407;51.234;6.804;2023-12-20T06:44:30;101069.19;;;8.11;100.00
10712;BME280;5407;51.234;6.804;2023-12-20T06:46:58;101070.78;;;8.12;100.00
10712;BME280;5407;51.234;6.804;2023-12-20T06:49:25;101078.72;;;8.17;100.00
10712;BME280;5407;51.234;6.804;2023-12-20T06:51:54;101073.19;;;8.39;100.00
10712;BME280;5407;51.234;6.804;2023-12-20T06:54:24;101074.78;;;8.23;100.00
10712;BME280;5407;51.234;6.804;2023-12-20T06:57:01;101076.66;;;8.14;100.00
10712;BME280;5407;51.234;6.804;2023-12-20T06:59:40;101068.88;;;8.12;100.00
10712;BME280;5407;51.234;6.804;2023-12-20T07:02:08;101059.72;;;8.05;100.00
10712;BME280;5407;51.234;6.804;2023-12-20T07:04:39;101068.72;;;8.09;100.00
10712;BME280;5407;51.234;6.804;2023-12-20T07:07:06;101062.41;;;8.13;100.00
10712;BME280;5407;51.234;6.804;2023-12-20T07:09:38;101064.34;;;8.21;100.00
10712;BME280;5407;51.234;6.804;2023-12-20T07:12:10;101063.69;;;8.16;100.00
10712;BME280;5407;51.234;6.804;2023-12-20T07:14:39;101076.84;;;8.26;100.00
10712;BME280;5407;51.234;6.804;2023-12-20T07:17:13;101064.66;;;8.37;100.00
10712;BME280;5407;51.234;6.804;2023-12-20T07:19:51;101066.56;;;8.28;100.00
10712;BME280;5407;51.234;6.804;2023-12-20T07:22:21;101062.59;;;8.34;100.00
10712;BME280;5407;51.234;6.804;2023-12-20T07:24:59;101061.19;;;8.28;100.00
10712;BME280;5407;51.234;6.804;2023-12-20T07:27:42;101063.88;;;8.19;100.00
10712;BME280;5407;51.234;6.804;2023-12-20T07:30:11;101069.25;;;8.28;100.00
10712;BME280;5407;51.234;6.804;2023-12-20T07:32:39;101070.47;;;8.13;100.00
10712;BME280;5407;51.234;6.804;2023-12-20T07:35:07;101071.63;;;8.38;99.59
10712;BME280;5407;51.234;6.804;2023-12-20T07:37:34;101072.25;;;8.35;99.70
10712;BME280;5407;51.234;6.804;2023-12-20T07:40:08;101073.97;;;8.22;99.73
10712;BME280;5407;51.234;6.804;2023-12-20T07:42:36;101064.66;;;8.28;99.60
10712;BME280;5407;51.234;6.804;2023-12-20T07:45:04;101078.56;;;8.39;98.73
10712;BME280;5407;51.234;6.804;2023-12-20T07:47:32;101073.06;;;8.35;99.27
10712;BME280;5407;51.234;6.804;2023-12-20T07:49:59;101061.75;;;8.08;99.72
10712;BME280;5407;51.234;6.804;2023-12-20T07:52:26;101065.28;;;8.34;99.16
10712;BME280;5407;51.234;6.804;2023-12-20T07:54:53;101065.75;;;8.27;99.25
10712;BME280;5407;51.234;6.804;2023-12-20T07:57:21;101070.66;;;8.34;98.67
10712;BME280;5407;51.234;6.804;2023-12-20T07:59:48;101065.31;;;8.42;98.61
10712;BME280;5407;51.234;6.804;2023-12-20T08:02:15;101069.88;;;8.25;99.67
10712;BME280;5407;51.234;6.804;2023-12-20T08:04:42;101072.72;;;8.37;98.02
10712;BME280;5407;51.234;6.804;2023-12-20T08:07:09;101074.78;;;8.40;97.34
10712;BME280;5407;51.234;6.804;2023-12-20T08:09:36;101067.50;;;8.49;97.29
10712;BME280;5407;51.234;6.804;2023-12-20T08:12:04;101070.66;;;8.51;97.27
10712;BME280;5407;51.234;6.804;2023-12-20T08:14:32;101080.31;;;8.43;97.99
10712;BME280;5407;51.234;6.804;2023-12-20T08:16:59;101085.03;;;8.55;97.04
10712;BME280;5407;51.234;6.804;2023-12-20T08:19:26;101071.16;;;8.36;97.58
10712;BME280;5407;51.234;6.804;2023-12-20T08:21:53;101076.66;;;8.48;97.06
10712;BME280;5407;51.234;6.804;2023-12-20T08:24:19;101079.03;;;8.41;96.19
10712;BME280;5407;51.234;6.804;2023-12-20T08:26:46;101070.97;;;8.41;96.47
10712;BME280;5407;51.234;6.804;2023-12-20T08:29:13;101066.88;;;8.35;96.50
10712;BME280;5407;51.234;6.804;2023-12-20T08:31:42;101053.75;;;8.33;97.22
10712;BME280;5407;51.234;6.804;2023-12-20T08:34:12;101059.13;;;8.33;95.33
10712;BME280;5407;51.234;6.804;2023-12-20T08:36:40;101076.34;;;8.41;96.30
10712;BME280;5407;51.234;6.804;2023-12-20T08:39:07;101077.94;;;8.33;97.15
10712;BME280;5407;51.234;6.804;2023-12-20T08:41:35;101080.63;;;8.42;95.83
10712;BME280;5407;51.234;6.804;2023-12-20T08:44:03;101076.53;;;8.36;96.24
10712;BME280;5407;51.234;6.804;2023-12-20T08:46:30;101078.75;;;8.34;96.57
10712;BME280;5407;51.234;6.804;2023-12-20T08:48:58;101085.38;;;8.36;95.98
10712;BME280;5407;51.234;6.804;2023-12-20T08:51:26;101082.84;;;8.40;96.35
10712;BME280;5407;51.234;6.804;2023-12-20T08:53:57;101083.16;;;8.30;97.33
10712;BME280;5407;51.234;6.804;2023-12-20T08:57:10;101085.69;;;8.35;96.54
10712;BME280;5407;51.234;6.804;2023-12-20T08:59:38;101095.63;;;8.17;96.13
10712;BME280;5407;51.234;6.804;2023-12-20T09:02:04;101084.56;;;8.53;96.13
10712;BME280;5407;51.234;6.804;2023-12-20T09:04:33;101090.41;;;8.55;96.39
10712;BME280;5407;51.234;6.804;2023-12-20T09:07:00;101091.38;;;8.42;96.78
10712;BME280;5407;51.234;6.804;2023-12-20T09:09:27;101081.44;;;8.34;96.20
10712;BME280;5407;51.234;6.804;2023-12-20T09:11:54;101081.88;;;8.27;96.65
10712;BME280;5407;51.234;6.804;2023-12-20T09:14:21;101073.06;;;8.35;97.23
10712;BME280;5407;51.234;6.804;2023-12-20T09:16:49;101074.31;;;8.46;97.05
10712;BME280;5407;51.234;6.804;2023-12-20T09:19:21;101059.72;;;8.56;96.74
10712;BME280;5407;51.234;6.804;2023-12-20T09:21:52;101077.78;;;8.64;96.30
10712;BME280;5407;51.234;6.804;2023-12-20T09:24:27;101071.78;;;8.33;96.25
10712;BME280;5407;51.234;6.804;2023-12-20T09:26:55;101067.66;;;8.61;96.10
10712;BME280;5407;51.234;6.804;2023-12-20T09:29:23;101071.47;;;8.51;95.56
10712;BME280;5407;51.234;6.804;2023-12-20T09:31:50;101069.38;;;8.57;95.95
10712;BME280;5407;51.234;6.804;2023-12-20T09:34:17;101068.75;;;8.43;95.81
10712;BME280;5407;51.234;6.804;2023-12-20T09:36:44;101077.16;;;8.33;96.03
10712;BME280;5407;51.234;6.804;2023-12-20T09:39:14;101069.56;;;8.26;97.33
10712;BME280;5407;51.234;6.804;2023-12-20T09:41:45;101065.28;;;8.34;96.57
10712;BME280;5407;51.234;6.804;2023-12-20T09:44:14;101066.41;;;8.41;96.16
10712;BME280;5407;51.234;6.804;2023-12-20T09:46:44;101074.31;;;8.46;96.06
10712;BME280;5407;51.234;6.804;2023-12-20T09:49:13;101067.66;;;8.52;95.46
10712;BME280;5407;51.234;6.804;2023-12-20T09:51:41;101069.06;;;8.50;95.03
10712;BME280;5407;51.234;6.804;2023-12-20T09:54:09;101069.38;;;8.57;94.72
10712;BME280;5407;51.234;6.804;2023-12-20T09:56:38;101061.81;;;8.59;94.59
10712;BME280;5407;51.234;6.804;2023-12-20T09:59:05;101072.56;;;8.59;94.73
10712;BME280;5407;51.234;6.804;2023-12-20T10:01:34;101069.25;;;8.62;94.60
10712;BME280;5407;51.234;6.804;2023-12-20T10:04:01;101063.56;;;8.38;94.60
10712;BME280;5407;51.234;6.804;2023-12-20T10:06:29;101076.84;;;8.51;95.47
10712;BME280;5407;51.234;6.804;2023-12-20T10:08:56;101071.28;;;8.48;95.47
10712;BME280;5407;51.234;6.804;2023-12-20T10:11:23;101078.25;;;8.66;94.37
10712;BME280;5407;51.234;6.804;2023-12-20T10:13:59;101069.06;;;8.50;95.63
10712;BME280;5407;51.234;6.804;2023-12-20T10:16:25;101055.16;;;8.48;94.98
10712;BME280;5407;51.234;6.804;2023-12-20T10:18:53;101071.63;;;8.46;94.97
10712;BME280;5407;51.234;6.804;2023-12-20T10:21:20;101053.91;;;8.45;94.59
10712;BME280;5407;51.234;6.804;2023-12-20T10:23:47;101062.91;;;8.66;94.21
10712;BME280;5407;51.234;6.804;2023-12-20T10:26:19;101060.53;;;8.48;94.79
10712;BME280;5407;51.234;6.804;2023-12-20T10:28:50;101049.94;;;8.51;94.52
10712;BME280;5407;51.234;6.804;2023-12-20T10:31:28;101047.56;;;8.50;95.05
10712;BME280;5407;51.234;6.804;2023-12-20T10:33:56;101056.91;;;8.52;94.77
10712;BME280;5407;51.234;6.804;2023-12-20T10:36:24;101041.25;;;8.54;94.90
10712;BME280;5407;51.234;6.804;2023-12-20T10:38:52;101037.13;;;8.57;95.37
10712;BME280;5407;51.234;6.804;2023-12-20T10:45:08;101039.97;;;8.68;94.06
10712;BME280;5407;51.234;6.804;2023-12-20T10:47:37;101028.28;;;8.56;94.66
10712;BME280;5407;51.234;6.804;2023-12-20T10:50:06;101034.91;;;8.59;94.57
10712;BME280;5407;51.234;6.804;2023-12-20T10:52:34;101033.31;;;8.66;94.43
10712;BME280;5407;51.234;6.804;2023-12-20T10:55:03;101023.81;;;8.68;94.15
10712;BME280;5407;51.234;6.804;2023-12-20T10:57:30;101024.00;;;8.64;95.03
10712;BME280;5407;51.234;6.804;2023-12-20T11:00:00;101022.06;;;8.72;94.80
10712;BME280;5407;51.234;6.804;2023-12-20T11:02:32;101024.06;;;8.92;93.70
10712;BME280;5407;51.234;6.804;2023-12-20T11:05:06;101025.88;;;8.71;94.53
10712;BME280;5407;51.234;6.804;2023-12-20T11:07:38;101026.81;;;8.67;93.87
10712;BME280;5407;51.234;6.804;2023-12-20T11:10:13;101041.84;;;8.68;93.79
10712;BME280;5407;51.234;6.804;2023-12-20T11:12:46;101030.75;;;8.78;94.31
10712;BME280;5407;51.234;6.804;2023-12-20T11:15:15;101030.91;;;8.73;94.49
10712;BME280;5407;51.234;6.804;2023-12-20T11:17:44;101033.59;;;8.73;94.35
10712;BME280;5407;51.234;6.804;2023-12-20T11:20:13;101033.00;;;8.68;94.56
10712;BME280;5407;51.234;6.804;2023-12-20T11:22:52;101027.13;;;8.74;94.42
10712;BME280;5407;51.234;6.804;2023-12-20T11:25:19;101022.72;;;8.61;95.40
10712;BME280;5407;51.234;6.804;2023-12-20T11:28:07;101020.84;;;8.62;95.42
10712;BME280;5407;51.234;6.804;2023-12-20T11:30:41;101012.78;;;8.62;95.40
10712;BME280;5407;51.234;6.804;2023-12-20T11:33:08;101011.03;;;8.66;96.31
10712;BME280;5407;51.234;6.804;2023-12-20T11:35:37;101011.84;;;8.49;96.11
10712;BME280;5407;51.234;6.804;2023-12-20T11:38:07;101007.38;;;8.62;97.07
10712;BME280;5407;51.234;6.804;2023-12-20T11:40:35;101001.66;;;8.71;96.33
10712;BME280;5407;51.234;6.804;2023-12-20T11:43:02;101006.88;;;8.76;95.89
10712;BME280;5407;51.234;6.804;2023-12-20T11:45:30;101010.56;;;8.64;96.16
10712;BME280;5407;51.234;6.804;2023-12-20T11:47:58;101012.59;;;8.58;95.99
10712;BME280;5407;51.234;6.804;2023-12-20T11:50:25;101016.72;;;8.56;96.86
10712;BME280;5407;51.234;6.804;2023-12-20T11:52:55;101012.25;;;8.76;95.41
10712;BME280;5407;51.234;6.804;2023-12-20T11:55:22;101008.34;;;8.66;95.53
10712;BME280;5407;51.234;6.804;2023-12-20T11:57:49;101007.69;;;8.68;95.38
10712;BME280;5407;51.234;6.804;2023-12-20T12:00:17;100999.44;;;8.73;96.17
10712;BME280;5407;51.234;6.804;2023-12-20T12:02:55;100994.47;;;8.92;95.14
10712;BME280;5407;51.234;6.804;2023-12-20T12:05:22;100984.88;;;8.74;94.55
10712;BME280;5407;51.234;6.804;2023-12-20T12:07:49;100987.19;;;8.93;95.20
10712;BME280;5407;51.234;6.804;2023-12-20T12:10:17;100979.16;;;8.76;94.87
10712;BME280;5407;51.234;6.804;2023-12-20T12:16:17;100978.22;;;8.80;94.80
10712;BME280;5407;51.234;6.804;2023-12-20T12:18:44;100978.41;;;9.04;94.28
10712;BME280;5407;51.234;6.804;2023-12-20T12:21:18;100969.84;;;8.82;94.92
10712;BME280;5407;51.234;6.804;2023-12-20T12:23:46;100974.22;;;8.86;95.42
10712;BME280;5407;51.234;6.804;2023-12-20T12:26:14;100969.84;;;8.82;95.56
10712;BME280;5407;51.234;6.804;2023-12-20T12:28:42;100966.97;;;8.87;95.62
10712;BME280;5407;51.234;6.804;2023-12-20T12:31:13;100976.94;;;8.86;94.94
10712;BME280;5407;51.234;6.804;2023-12-20T12:33:41;100966.59;;;8.60;95.92
10712;BME280;5407;51.234;6.804;2023-12-20T12:36:09;100969.19;;;8.85;95.64
10712;BME280;5407;51.234;6.804;2023-12-20T12:38:36;100968.22;;;8.89;96.22
10712;BME280;5407;51.234;6.804;2023-12-20T12:41:04;100976.00;;;8.74;96.15
10712;BME280;5407;51.234;6.804;2023-12-20T12:43:33;100977.28;;;8.76;96.15
10712;BME280;5407;51.234;6.804;2023-12-20T12:46:00;100965.69;;;8.84;97.42
10712;BME280;5407;51.234;6.804;2023-12-20T12:48:27;100964.41;;;8.90;96.42
10712;BME280;5407;51.234;6.804;2023-12-20T12:50:54;100963.28;;;8.91;96.83
10712;BME280;5407;51.234;6.804;2023-12-20T12:53:25;100939.16;;;8.74;97.42
10712;BME280;5407;51.234;6.804;2023-12-20T12:55:52;100936.38;;;8.91;97.11
10712;BME280;5407;51.234;6.804;2023-12-20T12:58:20;100939.44;;;8.81;99.18
10712;BME280;5407;51.234;6.804;2023-12-20T13:00:49;100943.91;;;8.69;100.00
10712;BME280;5407;51.234;6.804;2023-12-20T13:03:16;100952.78;;;8.69;100.00
10712;BME280;5407;51.234;6.804;2023-12-20T13:05:42;100950.38;;;8.76;100.00
10712;BME280;5407;51.234;6.804;2023-12-20T13:08:10;100939.81;;;8.71;100.00
10712;BME280;5407;51.234;6.804;2023-12-20T13:10:37;100937.28;;;8.67;100.00
10712;BME280;5407;51.234;6.804;2023-12-20T13:13:04;100929.88;;;8.64;100.00
10712;BME280;5407;51.234;6.804;2023-12-20T13:15:31;100913.84;;;8.75;100.00
10712;BME280;5407;51.234;6.804;2023-12-20T13:18:00;100929.88;;;8.64;100.00
10712;BME280;5407;51.234;6.804;2023-12-20T13:20:27;100926.56;;;8.58;100.00
10712;BME280;5407;51.234;6.804;2023-12-20T13:22:53;100905.78;;;8.75;100.00
10712;BME280;5407;51.234;6.804;2023-12-20T13:25:20;100898.00;;;8.74;100.00
10712;BME280;5407;51.234;6.804;2023-12-20T13:27:47;100896.50;;;8.56;100.00